Time;durP1;ratioP1;P1;durP2;ratioP2;P2;SDS_P1;SDS_P2;PMS_P1;PMS_P2;Temp;Humidity;BMP_temperature;BMP_pressure;BME280_temperature;BME280_humidity;BME280_pressure;Samples;Min_cycle;Max_cycle;Signal;HPM_P1;HPM_P2
2022/06/06 00:01:52;;;;;;;9.95;9.65;;;16.00;99.90;;;;;;5066646;28;20277;-82
2022/06/06 00:04:23;;;;;;;9.95;9.65;;;15.90;99.90;;;;;;5066892;28;20227;-82
2022/06/06 00:06:52;;;;;;;10.30;10.00;;;15.80;99.90;;;;;;5066459;28;20240;-82
2022/06/06 00:09:20;;;;;;;10.20;9.90;;;15.80;99.90;;;;;;5066649;28;20235;-82
2022/06/06 00:11:48;;;;;;;10.25;9.95;;;15.70;99.90;;;;;;5066030;28;20234;-82
2022/06/06 00:14:29;;;;;;;10.48;10.18;;;15.70;99.90;;;;;;5065670;28;20261;-82
2022/06/06 00:16:57;;;;;;;10.20;9.90;;;15.70;99.90;;;;;;5064701;28;20293;-82
2022/06/06 00:19:26;;;;;;;10.38;10.07;;;15.60;99.90;;;;;;5065981;28;20285;-81
2022/06/06 00:21:55;;;;;;;10.25;9.95;;;15.60;99.90;;;;;;5065263;28;20266;-82
2022/06/06 00:24:24;;;;;;;10.38;10.07;;;15.60;99.90;;;;;;5065542;28;20231;-81
2022/06/06 00:26:53;;;;;;;10.55;10.25;;;15.50;99.90;;;;;;5066009;28;20706;-81
2022/06/06 00:29:35;;;;;;;10.27;9.98;;;15.50;99.90;;;;;;5067821;28;20234;-81
2022/06/06 00:34:52;;;;;;;10.48;10.18;;;15.40;99.90;;;;;;5065899;28;20218;-82
2022/06/06 00:37:28;;;;;;;10.20;9.90;;;15.40;99.90;;;;;;5064800;28;20242;-82
2022/06/06 00:39:58;;;;;;;10.38;10.07;;;15.40;99.90;;;;;;5066435;28;20265;-82
2022/06/06 00:42:29;;;;;;;10.40;10.10;;;15.40;99.90;;;;;;5073739;28;20234;-82
2022/06/06 00:45:31;;;;;;;10.30;10.00;;;15.40;99.90;;;;;;5076503;28;20215;-82
2022/06/06 00:48:22;;;;;;;10.30;10.00;;;15.30;99.90;;;;;;5071592;28;20269;-82
2022/06/06 00:50:59;;;;;;;10.35;10.05;;;15.40;99.90;;;;;;5069293;28;20249;-83
2022/06/06 00:56:34;;;;;;;10.23;9.93;;;15.30;99.90;;;;;;5065471;28;20223;-82
2022/06/06 00:59:10;;;;;;;10.40;10.10;;;15.30;99.90;;;;;;5065733;28;20242;-82
2022/06/06 01:01:48;;;;;;;10.30;10.00;;;15.30;99.90;;;;;;5066378;28;20261;-82
2022/06/06 01:04:18;;;;;;;10.23;9.93;;;15.30;99.90;;;;;;5065952;28;20238;-82
2022/06/06 01:06:46;;;;;;;10.30;10.00;;;15.30;99.90;;;;;;5065380;28;20238;-82
2022/06/06 01:09:16;;;;;;;10.30;10.00;;;15.30;99.90;;;;;;5065015;28;20303;-82
2022/06/06 01:11:48;;;;;;;10.20;9.90;;;15.30;99.90;;;;;;5065445;28;20258;-82
2022/06/06 01:14:23;;;;;;;10.30;10.00;;;15.30;99.90;;;;;;5065741;28;20249;-82
2022/06/06 01:17:02;;;;;;;10.18;9.88;;;15.30;99.90;;;;;;5064756;28;20331;-82
2022/06/06 01:20:06;;;;;;;10.38;10.07;;;15.30;99.90;;;;;;5066029;28;20230;-82
2022/06/06 01:23:28;;;;;;;10.25;9.95;;;15.40;99.90;;;;;;5065837;28;20245;-82
2022/06/06 01:26:25;;;;;;;10.40;10.10;;;15.40;99.90;;;;;;5064896;28;20290;-82
2022/06/06 01:29:04;;;;;;;10.43;10.13;;;15.40;99.90;;;;;;5064842;28;20353;-82
2022/06/06 01:31:41;;;;;;;10.43;10.13;;;15.40;99.90;;;;;;5063834;28;20211;-82
2022/06/06 01:34:11;;;;;;;10.40;10.10;;;15.40;99.90;;;;;;5063687;28;20324;-82
2022/06/06 01:36:41;;;;;;;10.45;10.15;;;15.40;99.90;;;;;;5062475;28;20242;-82
2022/06/06 01:39:12;;;;;;;10.20;9.90;;;15.50;99.90;;;;;;5063991;28;20250;-82
2022/06/06 01:41:56;;;;;;;10.48;10.18;;;15.50;99.90;;;;;;5063845;28;20239;-82
2022/06/06 01:47:26;;;;;;;10.20;9.90;;;15.50;99.90;;;;;;5062846;28;20238;-82
2022/06/06 01:49:59;;;;;;;10.32;10.02;;;15.50;99.90;;;;;;5063192;28;20261;-82
2022/06/06 01:52:29;;;;;;;10.30;10.00;;;15.50;99.90;;;;;;5064674;28;20290;-82
2022/06/06 01:54:59;;;;;;;10.13;9.82;;;15.50;99.90;;;;;;5067375;28;20262;-82
2022/06/06 01:57:28;;;;;;;10.18;9.88;;;15.50;99.90;;;;;;5063801;28;20234;-82
2022/06/06 02:00:06;;;;;;;10.00;9.70;;;15.50;99.90;;;;;;5064008;28;20227;-82
2022/06/06 02:02:35;;;;;;;10.10;9.80;;;15.50;99.90;;;;;;5064338;28;20294;-82
2022/06/06 02:05:05;;;;;;;10.25;9.95;;;15.50;99.90;;;;;;5076324;28;20227;-82
2022/06/06 02:07:34;;;;;;;10.20;9.90;;;15.40;99.90;;;;;;5076789;28;20242;-82
2022/06/06 02:10:03;;;;;;;10.30;10.00;;;15.30;99.90;;;;;;5077209;28;20262;-82
2022/06/06 02:12:33;;;;;;;10.40;10.10;;;15.30;99.90;;;;;;5073751;28;20250;-83
2022/06/06 02:15:12;;;;;;;10.10;9.80;;;15.30;99.90;;;;;;5072032;28;20242;-83
2022/06/06 02:17:41;;;;;;;10.25;9.95;;;15.20;99.90;;;;;;5071842;28;20239;-82
2022/06/06 02:20:11;;;;;;;10.38;10.07;;;15.20;99.90;;;;;;5071805;28;20282;-83
2022/06/06 02:22:40;;;;;;;10.40;10.10;;;15.20;99.90;;;;;;5070996;28;20233;-83
2022/06/06 02:25:10;;;;;;;10.40;10.10;;;15.20;99.90;;;;;;5070467;28;20315;-83
2022/06/06 02:27:39;;;;;;;10.38;10.07;;;15.20;99.90;;;;;;5070045;28;20241;-83
2022/06/06 02:30:18;;;;;;;10.40;10.10;;;15.30;99.90;;;;;;5069674;28;20246;-83
2022/06/06 02:32:48;;;;;;;10.10;9.80;;;15.30;99.90;;;;;;5069338;28;20244;-83
2022/06/06 02:35:19;;;;;;;10.27;9.98;;;15.30;99.90;;;;;;5068769;28;20257;-83
2022/06/06 02:37:48;;;;;;;10.43;10.13;;;15.30;99.90;;;;;;5067297;28;20330;-82
2022/06/06 02:40:28;;;;;;;10.10;9.80;;;15.30;99.90;;;;;;5068060;28;20757;-83
2022/06/06 02:42:56;;;;;;;10.13;9.82;;;15.30;99.90;;;;;;5068697;28;20241;-83
2022/06/06 02:45:27;;;;;;;10.38;10.07;;;15.30;99.90;;;;;;5067243;28;20286;-82
2022/06/06 02:47:57;;;;;;;10.25;9.95;;;15.40;99.90;;;;;;5067109;28;20245;-82
2022/06/06 02:50:32;;;;;;;10.43;10.13;;;15.40;99.90;;;;;;5067814;28;20239;-82
2022/06/06 02:53:02;;;;;;;10.35;10.05;;;15.30;99.90;;;;;;5067496;28;20261;-81
2022/06/06 02:55:31;;;;;;;10.63;10.32;;;15.30;99.90;;;;;;5068120;28;20231;-83
2022/06/06 02:58:01;;;;;;;10.65;10.35;;;15.30;99.90;;;;;;5068926;28;20227;-83
2022/06/06 03:00:42;;;;;;;10.50;10.20;;;15.30;99.90;;;;;;5071954;28;20210;-81
2022/06/06 03:03:10;;;;;;;10.40;10.10;;;15.20;99.90;;;;;;5079534;28;20219;-81
2022/06/06 03:05:56;;;;;;;10.60;10.30;;;15.20;99.90;;;;;;5081321;28;20218;-81
2022/06/06 03:08:43;;;;;;;10.82;10.43;;;15.10;99.90;;;;;;5075844;28;20295;-81
2022/06/06 03:11:31;;;;;;;10.70;10.40;;;15.10;99.90;;;;;;5063031;28;20251;-81
2022/06/06 03:14:33;;;;;;;10.98;10.57;;;15.00;99.90;;;;;;5062773;28;20258;-81
2022/06/06 03:23:58;;;;;;;10.77;10.48;;;15.00;99.90;;;;;;5062330;28;20353;-82
2022/06/06 03:26:43;;;;;;;10.82;10.52;;;15.00;99.90;;;;;;5060449;28;20265;-83
2022/06/06 03:29:30;;;;;;;10.57;10.27;;;15.00;99.90;;;;;;5063192;28;20266;-82
2022/06/06 03:32:11;;;;;;;10.70;10.40;;;14.90;99.90;;;;;;5063042;28;20241;-82
2022/06/06 03:34:47;;;;;;;10.40;10.10;;;14.90;99.90;;;;;;5063173;28;20300;-82
2022/06/06 03:37:27;;;;;;;10.55;10.25;;;14.90;99.90;;;;;;5062916;28;20254;-82
2022/06/06 03:40:04;;;;;;;10.60;10.30;;;14.90;99.90;;;;;;5063555;28;20324;-82
2022/06/06 03:42:44;;;;;;;10.40;10.10;;;14.80;99.90;;;;;;5063109;28;20265;-83
2022/06/06 03:45:29;;;;;;;10.65;10.35;;;14.80;99.90;;;;;;5062795;28;20237;-82
2022/06/06 03:48:15;;;;;;;10.43;10.13;;;14.80;99.90;;;;;;5062916;28;20306;-82
2022/06/06 03:50:53;;;;;;;10.50;10.20;;;14.70;99.90;;;;;;5063730;28;20239;-82
2022/06/06 03:53:33;;;;;;;10.50;10.20;;;14.80;99.90;;;;;;5063654;28;20290;-82
2022/06/06 03:56:18;;;;;;;10.55;10.25;;;14.70;99.90;;;;;;5063617;28;20242;-82
2022/06/06 03:58:48;;;;;;;10.60;10.30;;;14.70;99.90;;;;;;5064916;28;20297;-82
2022/06/06 04:01:20;;;;;;;10.50;10.20;;;14.70;99.90;;;;;;5064889;28;20266;-82
2022/06/06 04:03:56;;;;;;;10.50;10.20;;;14.60;99.90;;;;;;5064118;28;20250;-82
2022/06/06 04:06:28;;;;;;;10.60;10.30;;;14.60;99.90;;;;;;5064477;28;20270;-82
2022/06/06 04:08:56;;;;;;;10.60;10.30;;;14.60;99.90;;;;;;5066062;28;20238;-82
2022/06/06 04:11:46;;;;;;;10.50;10.20;;;14.70;99.90;;;;;;5066070;28;20258;-82
2022/06/06 04:17:27;;;;;;;10.60;10.30;;;14.80;99.90;;;;;;5065931;28;20239;-82
2022/06/06 04:20:11;;;;;;;10.65;10.35;;;14.80;99.90;;;;;;5065612;28;20230;-82
2022/06/06 04:22:59;;;;;;;10.65;10.35;;;14.80;99.90;;;;;;5066750;28;20251;-82
2022/06/06 04:25:45;;;;;;;10.48;10.18;;;14.90;99.90;;;;;;5065873;28;20234;-82
2022/06/06 04:28:24;;;;;;;10.55;10.25;;;14.90;99.90;;;;;;5066250;28;20246;-82
2022/06/06 04:31:03;;;;;;;10.60;10.30;;;14.90;99.90;;;;;;5066090;28;20230;-82
2022/06/06 04:33:42;;;;;;;10.75;10.45;;;14.90;99.90;;;;;;5065479;28;20246;-82
2022/06/06 04:36:20;;;;;;;10.55;10.25;;;14.90;99.90;;;;;;5064970;28;20241;-82
2022/06/06 04:38:58;;;;;;;10.70;10.40;;;14.90;99.90;;;;;;5066081;28;20257;-82
2022/06/06 04:41:37;;;;;;;10.70;10.40;;;15.00;99.90;;;;;;5066037;28;20321;-82
2022/06/06 04:44:15;;;;;;;10.68;10.38;;;15.10;99.90;;;;;;5066058;28;20318;-82
2022/06/06 04:46:53;;;;;;;10.57;10.27;;;15.20;99.90;;;;;;5066006;28;20231;-82
2022/06/06 04:49:22;;;;;;;10.52;10.23;;;15.30;99.90;;;;;;5066487;28;20227;-82
2022/06/06 04:52:01;;;;;;;10.82;10.52;;;15.30;99.90;;;;;;5066141;28;20238;-82
2022/06/06 04:54:33;;;;;;;10.57;10.27;;;15.40;99.90;;;;;;5066812;28;20230;-81
2022/06/06 10:56:37;;;;;;;10.52;10.23;;;25.00;99.90;;;;;;1091727;23;20486;-86
2022/06/06 10:59:41;;;;;;;10.70;10.40;;;25.10;99.90;;;;;;4923970;29;20243;-79
2022/06/06 11:03:09;;;;;;;10.48;10.18;;;25.50;99.90;;;;;;4925487;29;20242;-81
2022/06/06 11:06:32;;;;;;;10.90;10.60;;;25.70;99.90;;;;;;4920100;29;20238;-81
2022/06/06 11:09:42;;;;;;;10.50;10.20;;;25.40;99.90;;;;;;4906377;29;20251;-81
2022/06/06 11:13:01;;;;;;;10.80;10.50;;;25.40;99.90;;;;;;4905032;29;20232;-80
2022/06/06 11:15:38;;;;;;;10.98;10.68;;;25.50;99.90;;;;;;4906221;29;20233;-80
2022/06/06 11:18:56;;;;;;;10.80;10.50;;;25.50;99.90;;;;;;4908149;29;20277;-81
2022/06/06 11:22:00;;;;;;;11.05;10.75;;;25.70;99.90;;;;;;4902903;29;20299;-81
2022/06/06 11:24:37;;;;;;;10.75;10.45;;;25.90;99.90;;;;;;4910812;29;20229;-81
2022/06/06 11:28:01;;;;;;;10.90;10.60;;;26.00;99.90;;;;;;4906915;29;20240;-81
2022/06/06 11:31:10;;;;;;;11.00;10.70;;;25.90;99.90;;;;;;4908286;29;20263;-81
2022/06/06 11:34:32;;;;;;;10.70;10.40;;;25.30;99.90;;;;;;4907494;29;20360;-81
2022/06/06 11:37:50;;;;;;;11.00;10.70;;;24.80;99.90;;;;;;4907428;29;20724;-81
2022/06/06 11:40:41;;;;;;;11.00;10.70;;;24.40;99.90;;;;;;4909091;29;20236;-81
2022/06/06 11:44:17;;;;;;;11.30;11.00;;;24.10;99.90;;;;;;4908987;29;20236;-82
2022/06/06 11:47:51;;;;;;;11.18;10.88;;;23.90;99.90;;;;;;4902968;29;20341;-82
2022/06/06 11:50:58;;;;;;;10.98;10.68;;;23.80;99.90;;;;;;4866273;29;20221;-82
2022/06/06 11:54:15;;;;;;;11.20;10.90;;;23.70;99.90;;;;;;4907514;29;20299;-82
2022/06/06 11:57:22;;;;;;;11.15;10.85;;;23.50;99.90;;;;;;4905907;29;20304;-82
2022/06/06 12:00:13;;;;;;;10.90;10.60;;;23.60;99.90;;;;;;4907220;29;20287;-81
2022/06/06 12:03:35;;;;;;;11.20;10.90;;;23.40;99.90;;;;;;4910182;29;20224;-81
2022/06/06 12:07:13;;;;;;;11.13;10.82;;;23.30;99.90;;;;;;4907691;29;20244;-82
2022/06/06 12:09:56;;;;;;;11.13;10.82;;;22.90;99.90;;;;;;4901932;29;20242;-81
2022/06/06 12:13:30;;;;;;;11.25;10.95;;;22.80;99.90;;;;;;4908915;29;20247;-81
2022/06/06 12:16:33;;;;;;;11.57;11.18;;;22.70;99.90;;;;;;4885718;29;20233;-82
2022/06/06 12:19:40;;;;;;;11.10;10.80;;;22.60;99.90;;;;;;4831521;29;20250;-81
2022/06/06 12:22:34;;;;;;;11.10;10.80;;;22.60;99.90;;;;;;4831467;29;20246;-81
2022/06/06 12:26:01;;;;;;;11.05;10.75;;;22.50;99.90;;;;;;4901386;29;20299;-81
2022/06/06 12:29:12;;;;;;;11.30;11.00;;;22.60;99.90;;;;;;4887145;29;20237;-81
2022/06/06 12:32:21;;;;;;;11.52;11.13;;;22.80;99.90;;;;;;4885504;29;20272;-81
2022/06/06 12:34:57;;;;;;;11.30;11.00;;;23.00;99.90;;;;;;4907150;29;20231;-81
2022/06/06 12:37:39;;;;;;;11.30;11.00;;;23.10;99.90;;;;;;4908773;29;20253;-81
2022/06/06 12:40:18;;;;;;;11.00;10.70;;;23.10;99.90;;;;;;4910509;29;20232;-81
2022/06/06 12:42:59;;;;;;;11.20;10.90;;;23.50;99.90;;;;;;4909470;29;20294;-81
2022/06/06 12:45:47;;;;;;;11.25;10.95;;;24.10;99.90;;;;;;4907417;29;20242;-81
2022/06/06 12:48:52;;;;;;;11.32;11.02;;;24.70;99.90;;;;;;4907083;29;20340;-81
2022/06/06 12:51:32;;;;;;;11.45;11.13;;;24.80;99.90;;;;;;4905962;29;20234;-80
2022/06/06 12:57:41;;;;;;;11.50;11.10;;;24.50;99.90;;;;;;4902048;29;20748;-80
2022/06/06 13:00:13;;;;;;;11.23;10.93;;;24.20;99.90;;;;;;4906770;29;20244;-80
2022/06/06 13:03:03;;;;;;;11.07;10.77;;;24.10;99.90;;;;;;4906325;29;20331;-80
2022/06/06 13:05:44;;;;;;;11.02;10.73;;;23.70;99.90;;;;;;4905885;29;20323;-81
2022/06/06 13:08:32;;;;;;;11.00;10.70;;;23.40;99.90;;;;;;4906368;29;20343;-81
2022/06/06 13:11:23;;;;;;;11.00;10.70;;;23.10;99.90;;;;;;4914773;29;20284;-81
2022/06/06 13:14:20;;;;;;;10.77;10.48;;;22.90;99.90;;;;;;4907014;29;20280;-81
2022/06/06 13:17:05;;;;;;;10.90;10.60;;;22.80;99.90;;;;;;4907167;29;20252;-82
2022/06/06 13:19:55;;;;;;;10.95;10.65;;;22.60;99.90;;;;;;4907678;29;20543;-81
2022/06/06 13:22:50;;;;;;;11.10;10.80;;;22.50;99.90;;;;;;4907617;29;20283;-81
2022/06/06 13:25:29;;;;;;;11.05;10.75;;;22.50;99.90;;;;;;4907554;29;20232;-81
2022/06/06 13:28:12;;;;;;;10.93;10.63;;;22.40;99.90;;;;;;4907623;29;20243;-82
2022/06/06 13:31:06;;;;;;;11.20;10.90;;;22.40;99.90;;;;;;4908550;29;20228;-81
2022/06/06 13:33:51;;;;;;;11.10;10.80;;;22.40;99.90;;;;;;4906541;29;20232;-81
2022/06/06 13:36:42;;;;;;;11.27;10.98;;;22.30;99.90;;;;;;4907580;29;20243;-81
2022/06/06 13:39:41;;;;;;;11.00;10.70;;;22.20;99.90;;;;;;4906204;29;20255;-81
2022/06/06 13:42:17;;;;;;;11.18;10.88;;;22.10;99.90;;;;;;4907088;29;20303;-81
2022/06/06 13:45:15;;;;;;;11.00;10.70;;;22.10;99.90;;;;;;4907480;29;20236;-82
2022/06/06 13:48:17;;;;;;;11.13;10.82;;;22.10;99.90;;;;;;4904252;29;20288;-80
2022/06/06 13:50:59;;;;;;;11.10;10.80;;;22.10;99.90;;;;;;4904492;29;20231;-81
2022/06/06 13:53:56;;;;;;;10.98;10.68;;;22.10;99.90;;;;;;4907091;29;20240;-80
2022/06/06 13:56:41;;;;;;;11.00;10.70;;;22.10;99.90;;;;;;4905147;29;20271;-82
2022/06/06 13:59:36;;;;;;;11.15;10.85;;;22.30;99.90;;;;;;4906458;29;20232;-80
2022/06/06 14:02:20;;;;;;;11.10;10.80;;;22.60;99.90;;;;;;4908005;29;20303;-80
2022/06/06 14:05:07;;;;;;;11.20;10.90;;;22.90;99.90;;;;;;4910776;29;20304;-80
2022/06/06 14:07:59;;;;;;;10.88;10.57;;;23.20;99.90;;;;;;4904348;29;20255;-80
2022/06/06 14:10:57;;;;;;;10.85;10.55;;;23.40;99.90;;;;;;4905421;29;20328;-80
2022/06/06 14:13:43;;;;;;;11.00;10.70;;;23.50;99.90;;;;;;4907146;29;20244;-81
2022/06/06 14:16:27;;;;;;;11.00;10.70;;;23.70;99.90;;;;;;4907563;29;20228;-81
2022/06/06 14:18:59;;;;;;;11.15;10.85;;;23.80;99.90;;;;;;4906978;29;20242;-80
2022/06/06 14:21:31;;;;;;;10.95;10.65;;;23.80;99.90;;;;;;4907259;29;20231;-80
2022/06/06 14:24:14;;;;;;;11.10;10.80;;;23.90;99.90;;;;;;4907045;29;20240;-79
2022/06/06 14:26:44;;;;;;;11.27;10.98;;;23.90;99.90;;;;;;4907269;29;20243;-79
2022/06/06 14:29:16;;;;;;;11.05;10.75;;;24.00;99.90;;;;;;4907369;29;20276;-80
2022/06/06 14:31:50;;;;;;;11.35;11.00;;;23.90;99.90;;;;;;4910083;29;20243;-80
2022/06/06 14:34:28;;;;;;;10.98;10.68;;;23.90;99.90;;;;;;4907195;29;20240;-80
2022/06/06 14:37:15;;;;;;;10.93;10.63;;;23.90;99.90;;;;;;4907096;29;20244;-81
2022/06/06 14:39:49;;;;;;;11.05;10.75;;;24.00;99.90;;;;;;4907210;29;20244;-80
2022/06/06 14:42:19;;;;;;;10.82;10.52;;;24.00;99.90;;;;;;4907781;29;20243;-80
2022/06/06 14:44:57;;;;;;;10.90;10.60;;;24.00;99.90;;;;;;4906786;29;20266;-80
2022/06/06 14:47:25;;;;;;;10.50;10.20;;;24.00;99.90;;;;;;4907171;29;20244;-80
2022/06/06 14:52:59;;;;;;;11.05;10.75;;;24.00;99.90;;;;;;4919731;29;20220;-81
2022/06/06 14:55:27;;;;;;;10.88;10.57;;;23.90;99.90;;;;;;4908811;29;20236;-81
2022/06/06 14:57:55;;;;;;;10.70;10.40;;;23.80;99.90;;;;;;4907794;29;20326;-80
2022/06/06 15:00:35;;;;;;;10.70;10.40;;;23.70;99.90;;;;;;4907928;29;20296;-80
2022/06/06 15:03:05;;;;;;;10.93;10.63;;;23.60;99.90;;;;;;4907733;29;20220;-81
2022/06/06 15:05:34;;;;;;;11.00;10.70;;;23.60;99.90;;;;;;4907038;29;20244;-81
2022/06/06 15:08:09;;;;;;;11.02;10.73;;;23.50;99.90;;;;;;4906437;29;20272;-80
2022/06/06 15:10:45;;;;;;;10.95;10.65;;;23.50;99.90;;;;;;4906947;29;20307;-81
2022/06/06 15:13:14;;;;;;;10.93;10.63;;;23.40;99.90;;;;;;4906643;29;20251;-80
2022/06/06 15:15:42;;;;;;;10.93;10.63;;;23.40;99.90;;;;;;4905781;29;20243;-80
2022/06/06 15:18:19;;;;;;;10.82;10.52;;;23.30;99.90;;;;;;4905583;29;20244;-80
2022/06/06 15:20:52;;;;;;;10.90;10.60;;;23.30;99.90;;;;;;4905946;29;20224;-81
2022/06/06 15:23:23;;;;;;;10.88;10.57;;;23.20;99.90;;;;;;4906065;29;20272;-81
2022/06/06 15:25:58;;;;;;;10.85;10.55;;;23.00;99.90;;;;;;4905825;29;20268;-82
2022/06/06 15:28:38;;;;;;;10.75;10.45;;;22.80;99.90;;;;;;4905915;29;20246;-81
2022/06/06 15:31:33;;;;;;;10.63;10.32;;;22.80;99.90;;;;;;4906734;29;20235;-81
2022/06/06 15:34:17;;;;;;;11.00;10.70;;;22.70;99.90;;;;;;4906051;29;20236;-81
2022/06/06 15:36:54;;;;;;;10.43;10.13;;;22.60;99.90;;;;;;4904820;29;20240;-81
2022/06/06 15:39:32;;;;;;;10.45;10.15;;;22.40;99.90;;;;;;4905828;29;20243;-81
2022/06/06 15:42:16;;;;;;;10.48;10.18;;;22.50;99.90;;;;;;4905275;29;20244;-81
2022/06/06 15:44:55;;;;;;;10.57;10.27;;;22.60;99.90;;;;;;4905119;29;20236;-81
2022/06/06 15:47:29;;;;;;;10.80;10.50;;;22.60;99.90;;;;;;4905025;29;20254;-81
2022/06/06 15:50:27;;;;;;;10.30;10.00;;;22.60;99.90;;;;;;4906667;29;20267;-82
2022/06/06 15:53:25;;;;;;;10.65;10.35;;;22.70;99.90;;;;;;4904141;29;20260;-81
2022/06/06 15:56:06;;;;;;;10.40;10.10;;;22.80;99.90;;;;;;4914423;29;20228;-82
2022/06/06 15:59:28;;;;;;;10.50;10.20;;;22.90;99.90;;;;;;4914601;29;20244;-80
2022/06/06 16:02:15;;;;;;;10.68;10.38;;;22.90;99.90;;;;;;4912309;29;20240;-80
2022/06/06 16:04:50;;;;;;;10.75;10.45;;;22.80;99.90;;;;;;4908587;29;20304;-80
2022/06/06 16:07:31;;;;;;;10.70;10.40;;;22.70;99.90;;;;;;4907207;29;20236;-80
2022/06/06 16:10:13;;;;;;;10.90;10.60;;;22.80;99.90;;;;;;4907168;29;20240;-80
2022/06/06 16:12:58;;;;;;;10.65;10.35;;;22.80;99.90;;;;;;4906142;29;20232;-80
2022/06/06 16:15:34;;;;;;;10.68;10.38;;;22.70;99.90;;;;;;4905862;29;20240;-81
2022/06/06 16:18:11;;;;;;;10.70;10.40;;;22.70;99.90;;;;;;4905751;29;20292;-81
2022/06/06 16:20:44;;;;;;;10.65;10.35;;;22.70;99.90;;;;;;4906338;29;20239;-81
2022/06/06 16:23:20;;;;;;;11.00;10.70;;;22.70;99.90;;;;;;4908066;29;20239;-81
2022/06/06 16:26:00;;;;;;;10.77;10.48;;;22.60;99.90;;;;;;4905814;29;20246;-80
2022/06/06 16:28:33;;;;;;;11.00;10.70;;;22.70;99.90;;;;;;4905516;29;20257;-80
2022/06/06 16:31:04;;;;;;;10.85;10.55;;;22.70;99.90;;;;;;4905449;29;20311;-80
2022/06/06 16:33:34;;;;;;;10.63;10.32;;;22.70;99.90;;;;;;4905709;29;20238;-81
2022/06/06 16:36:05;;;;;;;10.40;10.10;;;22.70;99.90;;;;;;4907391;29;20261;-82
2022/06/06 16:38:38;;;;;;;10.65;10.35;;;22.70;99.90;;;;;;4906216;29;20240;-82
2022/06/06 16:48:16;;;;;;;10.40;10.10;;;22.70;99.90;;;;;;4911877;29;20256;-82
2022/06/06 16:51:11;;;;;;;10.65;10.35;;;22.60;99.90;;;;;;4909458;29;20328;-81
2022/06/06 16:54:04;;;;;;;10.75;10.45;;;22.60;99.90;;;;;;4910187;29;20262;-82
2022/06/06 16:56:47;;;;;;;10.90;10.60;;;22.60;99.90;;;;;;4908524;29;20269;-81
2022/06/06 16:59:28;;;;;;;10.45;10.15;;;22.50;99.90;;;;;;5010043;23;20247;-83
2022/06/06 17:07:45;;;;;;;10.40;10.10;;;22.40;99.90;;;;;;5011372;28;20279;-83
2022/06/06 17:08:37;;;;;;;10.55;10.25;;;22.30;99.90;;;;;;5010471;28;20312;-83
2022/06/06 17:11:20;;;;;;;10.73;10.43;;;22.40;99.90;;;;;;5009281;28;20255;-83
2022/06/06 17:14:07;;;;;;;10.55;10.25;;;22.40;99.90;;;;;;5009631;28;20209;-83
2022/06/06 17:16:57;;;;;;;10.60;10.30;;;22.40;99.90;;;;;;5012576;28;20236;-83
2022/06/06 17:19:34;;;;;;;10.40;10.10;;;22.50;99.90;;;;;;5010677;28;20287;-84
2022/06/06 17:22:11;;;;;;;10.50;10.20;;;22.40;99.90;;;;;;5010078;28;20297;-84
2022/06/06 17:25:07;;;;;;;10.27;9.98;;;22.30;99.90;;;;;;5010440;28;20244;-83
2022/06/06 17:28:29;;;;;;;10.57;10.27;;;22.20;99.90;;;;;;4996238;28;20225;-84
2022/06/06 17:31:25;;;;;;;10.27;9.98;;;22.10;99.90;;;;;;5009388;28;20233;-84
2022/06/06 17:34:04;;;;;;;10.48;10.18;;;22.00;99.90;;;;;;5009912;28;20332;-84
2022/06/06 17:36:41;;;;;;;10.35;10.05;;;21.80;99.90;;;;;;5009247;28;20257;-82
2022/06/06 17:39:28;;;;;;;10.43;10.13;;;21.70;99.90;;;;;;5007925;28;20250;-82
2022/06/06 17:42:32;;;;;;;10.30;10.00;;;21.80;99.90;;;;;;5006817;28;20252;-83
2022/06/06 17:45:31;;;;;;;10.10;9.80;;;21.80;99.90;;;;;;5006255;28;20284;-83
2022/06/06 17:48:25;;;;;;;10.40;10.10;;;21.80;99.90;;;;;;5007040;28;20244;-82
2022/06/06 17:51:02;;;;;;;10.30;10.00;;;21.50;99.90;;;;;;5008832;28;20237;-83
2022/06/06 17:53:51;;;;;;;10.52;10.23;;;21.50;99.90;;;;;;5007718;28;20228;-83
2022/06/06 17:56:38;;;;;;;10.32;10.02;;;21.40;99.90;;;;;;5008167;28;20217;-84
2022/06/06 17:59:43;;;;;;;10.43;10.13;;;21.30;99.90;;;;;;5007111;28;20233;-83
2022/06/06 18:02:54;;;;;;;10.40;10.10;;;21.40;99.90;;;;;;5007347;28;20284;-83
2022/06/06 18:06:09;;;;;;;10.60;10.30;;;21.40;99.90;;;;;;5010536;28;20224;-83
2022/06/06 18:09:23;;;;;;;10.32;10.02;;;21.20;99.90;;;;;;4992404;28;20236;-83
2022/06/06 18:12:02;;;;;;;10.45;10.15;;;21.20;99.90;;;;;;5009212;28;20221;-83
2022/06/06 18:14:42;;;;;;;10.38;10.07;;;21.00;99.90;;;;;;5009185;28;20240;-83
2022/06/06 18:17:26;;;;;;;10.30;10.00;;;21.00;99.90;;;;;;5008698;28;20239;-83
2022/06/06 18:19:54;;;;;;;10.30;10.00;;;21.00;99.90;;;;;;5007875;28;20252;-83
2022/06/06 18:22:32;;;;;;;10.13;9.82;;;21.00;99.90;;;;;;5007643;28;20232;-83
2022/06/06 18:25:02;;;;;;;10.07;9.77;;;21.00;99.90;;;;;;5008748;28;20212;-83
2022/06/06 18:27:35;;;;;;;10.23;9.93;;;21.00;99.90;;;;;;5007688;28;20225;-83
2022/06/06 18:30:09;;;;;;;10.25;9.95;;;21.00;99.90;;;;;;5008385;28;20236;-83
2022/06/06 18:32:43;;;;;;;10.00;9.70;;;21.00;99.90;;;;;;5008139;28;20260;-82
2022/06/06 18:35:21;;;;;;;10.30;10.00;;;21.10;99.90;;;;;;5007691;28;20255;-83
2022/06/06 18:38:07;;;;;;;10.10;9.80;;;21.10;99.90;;;;;;5008300;28;20300;-83
2022/06/06 18:40:41;;;;;;;10.10;9.80;;;21.00;99.90;;;;;;5007910;28;20233;-83
2022/06/06 18:43:25;;;;;;;9.68;9.38;;;21.00;99.90;;;;;;5007338;28;20316;-83
2022/06/06 18:46:10;;;;;;;10.10;9.80;;;21.00;99.90;;;;;;5007794;28;20311;-83
2022/06/06 18:48:40;;;;;;;9.90;9.60;;;21.10;99.90;;;;;;5007198;28;20272;-83
2022/06/06 18:54:04;;;;;;;9.95;9.65;;;21.10;99.90;;;;;;5008036;28;20251;-82
2022/06/06 18:56:42;;;;;;;9.68;9.38;;;21.10;99.90;;;;;;5008032;28;20244;-83
2022/06/06 18:59:20;;;;;;;9.57;9.27;;;21.10;99.90;;;;;;5010007;28;20240;-82
2022/06/06 19:01:52;;;;;;;9.80;9.50;;;21.10;99.90;;;;;;5010787;28;20283;-83
2022/06/06 19:04:28;;;;;;;9.93;9.63;;;21.00;99.90;;;;;;5010096;28;20319;-83
2022/06/06 19:07:17;;;;;;;9.68;9.38;;;21.00;99.90;;;;;;5009896;28;20355;-83
2022/06/06 19:10:04;;;;;;;9.75;9.45;;;20.90;99.90;;;;;;5007344;28;20236;-83
2022/06/06 19:12:41;;;;;;;9.80;9.50;;;20.90;99.90;;;;;;5008645;28;20229;-84
2022/06/06 19:15:31;;;;;;;9.85;9.55;;;20.90;99.90;;;;;;5009233;28;20236;-83
2022/06/06 19:18:15;;;;;;;9.90;9.60;;;20.90;99.90;;;;;;5008886;28;20241;-83
2022/06/06 19:20:54;;;;;;;9.80;9.50;;;20.80;99.90;;;;;;5012585;28;20299;-83
2022/06/06 19:23:25;;;;;;;9.90;9.60;;;20.80;99.90;;;;;;5017220;28;20221;-83
2022/06/06 19:26:01;;;;;;;10.20;9.90;;;20.80;99.90;;;;;;5019532;28;20229;-83
2022/06/06 19:28:34;;;;;;;9.90;9.60;;;20.80;99.90;;;;;;5019288;28;20253;-83
2022/06/06 19:31:26;;;;;;;9.70;9.40;;;20.80;99.90;;;;;;5018557;28;20233;-83
2022/06/06 19:34:04;;;;;;;9.82;9.52;;;20.80;99.90;;;;;;5015533;28;20272;-82
2022/06/06 19:36:36;;;;;;;9.80;9.50;;;20.80;99.90;;;;;;5014997;28;20347;-82
2022/06/06 19:39:32;;;;;;;9.90;9.60;;;20.70;99.90;;;;;;5013545;28;20323;-83
2022/06/06 19:42:09;;;;;;;9.80;9.50;;;20.70;99.90;;;;;;5011201;28;20336;-83
2022/06/06 19:44:49;;;;;;;10.00;9.70;;;20.70;99.90;;;;;;5011814;28;20220;-83
2022/06/06 19:47:25;;;;;;;9.70;9.40;;;20.70;99.90;;;;;;5010562;28;20224;-83
2022/06/06 19:50:03;;;;;;;9.70;9.40;;;20.60;99.90;;;;;;5011263;28;20236;-83
2022/06/06 19:52:33;;;;;;;9.82;9.52;;;20.60;99.90;;;;;;5011296;28;20236;-83
2022/06/06 19:57:57;;;;;;;9.57;9.27;;;20.50;99.90;;;;;;5008630;28;20221;-83
2022/06/06 20:00:38;;;;;;;9.50;9.20;;;20.50;99.90;;;;;;5010175;28;20268;-83
2022/06/06 20:03:15;;;;;;;9.40;9.10;;;20.40;99.90;;;;;;5010627;28;20319;-84
2022/06/06 20:05:54;;;;;;;9.40;9.10;;;20.30;99.90;;;;;;5009233;28;20260;-84
2022/06/06 20:08:31;;;;;;;9.50;9.20;;;20.30;99.90;;;;;;5008757;28;20224;-84
2022/06/06 20:11:10;;;;;;;9.27;8.98;;;20.20;99.90;;;;;;5007648;28;20288;-83
2022/06/06 20:13:50;;;;;;;9.25;8.95;;;20.10;99.90;;;;;;5007706;28;20243;-84
2022/06/06 20:16:33;;;;;;;9.02;8.73;;;20.00;99.90;;;;;;5007291;28;20232;-83
2022/06/06 20:19:24;;;;;;;9.40;9.10;;;20.00;99.90;;;;;;5007602;28;20221;-83
2022/06/06 20:22:00;;;;;;;9.30;9.00;;;19.90;99.90;;;;;;5007863;28;20233;-83
2022/06/06 20:24:37;;;;;;;9.40;9.10;;;19.80;99.90;;;;;;5007237;28;20232;-83
2022/06/06 20:27:06;;;;;;;9.63;9.32;;;19.80;99.90;;;;;;5007915;28;20270;-83
2022/06/06 20:29:45;;;;;;;9.50;9.20;;;19.80;99.90;;;;;;5008123;28;20236;-83
2022/06/06 20:32:43;;;;;;;9.80;9.50;;;19.80;99.90;;;;;;5008734;28;20236;-83